Time;durP1;ratioP1;P1;durP2;ratioP2;P2;SDS_P1;SDS_P2;PMS_P1;PMS_P2;Temp;Humidity;BMP_temperature;BMP_pressure;BME280_temperature;BME280_humidity;BME280_pressure;Samples;Min_cycle;Max_cycle;Signal;HPM_P1;HPM_P2
2022/05/23 00:01:15;;;;;;;;;4.00;4.00;;;;;22.67;45.88;100838.47;5090654;28;9595;-72
2022/05/23 00:03:40;;;;;;;;;3.00;3.00;;;;;22.67;45.39;100835.78;5090183;28;8862;-72
2022/05/23 00:06:06;;;;;;;;;4.00;4.00;;;;;22.64;45.37;100826.13;5090972;28;8795;-72
2022/05/23 00:08:32;;;;;;;;;2.75;2.75;;;;;22.67;45.58;100830.47;5090784;28;8792;-72
2022/05/23 00:10:57;;;;;;;;;4.75;3.50;;;;;22.65;45.57;100831.38;5076423;28;8802;-72
2022/05/23 00:13:22;;;;;;;;;4.75;4.00;;;;;22.65;45.73;100817.19;5073400;28;8910;-72
2022/05/23 00:15:51;;;;;;;;;2.50;2.50;;;;;22.64;45.47;100818.97;5089940;28;8799;-73
2022/05/23 00:18:16;;;;;;;;;5.00;4.00;;;;;22.64;45.48;100807.50;5089977;28;8831;-73
2022/05/23 00:20:41;;;;;;;;;2.00;2.00;;;;;22.64;45.91;100811.00;5090953;28;9789;-72
2022/05/23 00:23:07;;;;;;;;;4.25;3.50;;;;;22.63;45.45;100803.06;5090464;28;8804;-72
2022/05/23 00:25:32;;;;;;;;;3.00;3.00;;;;;22.62;45.54;100801.31;5090382;28;8768;-72
2022/05/23 00:27:57;;;;;;;;;3.00;3.00;;;;;22.62;45.70;100796.88;5090253;28;8803;-72
2022/05/23 00:30:25;;;;;;;;;4.25;4.00;;;;;22.62;45.65;100785.34;5090169;28;8764;-73
2022/05/23 00:35:41;;;;;;;;;2.75;2.75;;;;;22.61;45.54;100788.91;5090171;28;9692;-72
2022/05/23 00:38:06;;;;;;;;;4.00;2.50;;;;;22.60;45.59;100779.22;5088633;28;9614;-73
2022/05/23 00:43:13;;;;;;;;;3.25;3.25;;;;;22.57;45.30;100772.16;5090247;28;9473;-72
2022/05/23 00:43:39;;;;;;;;;3.75;3.75;;;;;22.55;45.68;100763.38;5089882;28;9519;-73
2022/05/23 00:46:07;;;;;;;;;3.50;3.50;;;;;22.55;45.44;100754.53;5093355;28;9521;-71
2022/05/23 00:48:33;;;;;;;;;3.00;2.25;;;;;22.55;45.29;100752.72;5091738;28;8784;-72
2022/05/23 00:51:14;;;;;;;;;3.25;3.25;;;;;22.56;45.42;100764.25;5090392;28;9697;-72
2022/05/23 00:53:50;;;;;;;;;3.75;3.75;;;;;22.56;45.51;100769.56;5089798;28;9323;-72
2022/05/23 00:56:18;;;;;;;;;2.00;2.00;;;;;22.54;45.52;100764.28;5090007;28;9545;-72
2022/05/23 00:58:54;;;;;;;;;3.00;2.25;;;;;22.53;45.78;100756.38;5091983;28;9545;-71
2022/05/23 01:01:23;;;;;;;;;3.75;2.25;;;;;22.55;45.78;100754.53;5093518;28;9318;-73
2022/05/23 01:03:49;;;;;;;;;3.50;3.50;;;;;22.55;45.63;100754.53;5089691;28;9379;-72
2022/05/23 01:06:14;;;;;;;;;3.00;3.00;;;;;22.53;45.45;100751.03;5089334;28;9466;-72
2022/05/23 01:08:41;;;;;;;;;3.25;3.25;;;;;22.50;46.24;100753.75;5089958;28;8806;-72
2022/05/23 01:11:08;;;;;;;;;4.00;2.50;;;;;22.48;46.17;100752.94;5074667;28;8896;-73
2022/05/23 01:13:34;;;;;;;;;2.50;2.50;;;;;22.45;45.97;100748.59;5073786;28;9489;-73
2022/05/23 01:15:59;;;;;;;;;3.75;3.00;;;;;22.45;46.27;100750.38;5089804;28;9413;-72
2022/05/23 01:18:25;;;;;;;;;3.75;2.75;;;;;22.43;45.98;100750.41;5089834;28;8796;-72
2022/05/23 01:20:55;;;;;;;;;2.25;1.50;;;;;22.43;46.34;100739.78;5088969;28;8954;-72
2022/05/23 01:23:49;;;;;;;;;2.00;2.00;;;;;22.41;46.60;100740.75;5090244;28;8791;-72
2022/05/23 01:26:14;;;;;;;;;3.00;3.00;;;;;22.40;46.62;100744.31;5089518;28;9400;-72
2022/05/23 01:28:41;;;;;;;;;2.00;2.00;;;;;22.40;46.42;100745.19;5089209;28;9696;-72
2022/05/23 01:31:09;;;;;;;;;3.50;3.50;;;;;22.40;46.41;100753.16;5089798;28;8788;-72
2022/05/23 01:33:34;;;;;;;;;2.00;2.00;;;;;22.39;46.54;100751.41;5089524;28;9650;-72
2022/05/23 01:36:00;;;;;;;;;2.00;2.00;;;;;22.40;46.35;100750.50;5088992;28;10317;-71
2022/05/23 01:38:26;;;;;;;;;2.00;2.00;;;;;22.38;46.49;100744.34;5089690;28;8814;-72
2022/05/23 01:40:51;;;;;;;;;3.00;2.75;;;;;22.38;46.11;100748.81;5088989;28;8772;-72
2022/05/23 01:43:16;;;;;;;;;5.33;3.00;;;;;22.37;46.04;100747.94;5090075;28;8819;-72
2022/05/23 01:45:42;;;;;;;;;2.00;2.00;;;;;22.37;46.29;100739.09;5089646;28;8767;-72
2022/05/23 01:48:08;;;;;;;;;3.00;2.50;;;;;22.37;46.51;100739.97;5088571;28;8811;-72
2022/05/23 01:50:33;;;;;;;;;2.00;2.00;;;;;22.37;46.58;100736.44;5091667;28;8800;-71
2022/05/23 01:52:59;;;;;;;;;2.00;2.00;;;;;22.37;46.58;100736.44;5093433;28;8826;-71
2022/05/23 01:55:24;;;;;;;;;4.00;3.00;;;;;22.37;46.56;100739.09;5092890;28;8893;-72
2022/05/23 01:57:50;;;;;;;;;2.00;2.00;;;;;22.35;46.50;100731.13;5092649;28;8820;-72
2022/05/23 02:03:00;;;;;;;;;2.00;2.00;;;;;22.34;46.67;100725.88;5092844;28;8756;-72
2022/05/23 02:05:27;;;;;;;;;2.00;2.00;;;;;22.35;46.96;100728.47;5093389;28;9395;-72
2022/05/23 02:07:53;;;;;;;;;2.00;2.00;;;;;22.34;46.50;100734.72;5092605;28;9457;-72
2022/05/23 02:10:20;;;;;;;;;2.00;2.00;;;;;22.34;46.44;100729.41;5084654;28;9479;-72
2022/05/23 02:12:46;;;;;;;;;2.00;2.00;;;;;22.33;46.67;100726.78;5072219;28;9569;-71
2022/05/23 02:15:11;;;;;;;;;3.50;2.50;;;;;22.33;46.56;100726.78;5090593;28;9467;-71
2022/05/23 02:17:37;;;;;;;;;3.25;2.00;;;;;22.31;46.43;100723.31;5092188;28;8823;-72
2022/05/23 02:20:03;;;;;;;;;3.00;2.00;;;;;22.32;46.72;100725.91;5092819;28;8775;-73
2022/05/23 02:22:28;;;;;;;;;2.00;2.00;;;;;22.31;46.68;100724.16;5092794;28;8791;-73
2022/05/23 02:24:53;;;;;;;;;2.00;2.00;;;;;22.30;46.66;100719.78;5092282;28;9318;-73
2022/05/23 02:27:19;;;;;;;;;1.50;1.00;;;;;22.29;46.51;100712.69;5092649;28;8772;-73
2022/05/23 02:29:44;;;;;;;;;1.25;1.25;;;;;22.30;46.53;100711.78;5092434;28;8795;-73
2022/05/23 02:32:10;;;;;;;;;2.00;2.00;;;;;22.30;46.44;100710.91;5092302;28;8859;-72
2022/05/23 02:34:36;;;;;;;;;2.00;2.00;;;;;22.29;46.49;100711.81;5092627;28;8759;-73
2022/05/23 02:37:01;;;;;;;;;3.00;1.75;;;;;22.29;46.62;100707.38;5092204;28;9473;-73
2022/05/23 02:39:26;;;;;;;;;2.75;2.75;;;;;22.29;46.72;100701.19;5092225;28;8796;-73
2022/05/23 02:41:52;;;;;;;;;2.50;2.50;;;;;22.29;46.74;100694.09;5092246;28;8784;-73
2022/05/23 02:44:17;;;;;;;;;1.25;1.25;;;;;22.29;46.67;100688.75;5092302;28;9535;-73
2022/05/23 02:46:43;;;;;;;;;3.25;2.25;;;;;22.29;46.08;100678.13;5092618;28;8819;-73
2022/05/23 02:49:10;;;;;;;;;1.75;1.75;;;;;22.34;46.25;100681.53;5092776;28;8810;-73
2022/05/23 02:51:36;;;;;;;;;1.00;1.00;;;;;22.32;46.41;100669.16;5091575;28;8783;-73
2022/05/23 02:54:01;;;;;;;;;2.00;1.00;;;;;22.30;46.54;100658.59;5091203;28;9453;-73
2022/05/23 02:56:26;;;;;;;;;1.00;1.00;;;;;22.29;46.34;100664.81;5091892;28;8795;-72
2022/05/23 02:58:52;;;;;;;;;1.33;1.33;;;;;22.31;46.57;100660.31;5091453;28;9673;-73
2022/05/23 03:01:17;;;;;;;;;2.00;2.00;;;;;22.30;46.24;100652.41;5092121;28;8820;-72
2022/05/23 03:03:42;;;;;;;;;3.00;3.00;;;;;22.30;46.35;100647.97;5092056;28;9573;-72
2022/05/23 03:06:08;;;;;;;;;3.00;2.00;;;;;22.31;46.54;100641.69;5091103;28;8795;-72
2022/05/23 03:08:35;;;;;;;;;2.00;1.00;;;;;22.32;46.26;100637.25;5092235;28;8784;-72
2022/05/23 03:11:02;;;;;;;;;1.00;1.00;;;;;22.31;46.53;100625.75;5077649;28;8778;-72
2022/05/23 03:13:28;;;;;;;;;4.00;2.00;;;;;22.30;46.48;100617.81;5074673;28;9421;-72
2022/05/23 03:15:54;;;;;;;;;2.00;2.00;;;;;22.29;46.41;100608.09;5091616;28;9408;-72
2022/05/23 03:18:20;;;;;;;;;1.25;1.25;;;;;22.30;46.54;100608.06;5091804;28;9495;-72
2022/05/23 03:20:45;;;;;;;;;2.00;2.00;;;;;22.30;46.34;100599.19;5091149;28;8764;-72
2022/05/23 03:28:42;;;;;;;;;3.00;2.00;;;;;22.30;46.29;100580.59;5091184;28;9460;-72
2022/05/23 03:31:07;;;;;;;;;2.00;2.00;;;;;22.30;46.29;100569.94;5091192;28;9473;-72
2022/05/23 03:33:33;;;;;;;;;2.00;1.75;;;;;22.29;46.41;100571.72;5090820;28;8861;-72
2022/05/23 03:36:00;;;;;;;;;2.25;2.25;;;;;22.30;46.34;100569.94;5090932;28;8816;-72
2022/05/23 03:38:25;;;;;;;;;1.00;1.00;;;;;22.29;46.43;100571.72;5091251;28;9552;-72
2022/05/23 03:40:50;;;;;;;;;2.00;2.00;;;;;22.28;46.30;100559.34;5090582;28;9387;-72
2022/05/23 03:43:16;;;;;;;;;2.00;2.00;;;;;22.27;46.26;100554.94;5091160;28;8779;-72
2022/05/23 03:45:42;;;;;;;;;2.00;2.00;;;;;22.28;46.63;100556.69;5091204;28;8849;-72
2022/05/23 03:48:07;;;;;;;;;1.25;1.25;;;;;22.26;46.45;100547.91;5090573;28;8807;-73
2022/05/23 03:50:34;;;;;;;;;0.25;0.25;;;;;22.27;46.64;100546.09;5091165;28;8795;-72
2022/05/23 03:53:00;;;;;;;;;2.25;2.00;;;;;22.26;46.45;100539.91;5090819;28;8771;-72
2022/05/23 03:55:26;;;;;;;;;2.00;2.00;;;;;22.27;46.56;100538.97;5090543;28;9389;-72
2022/05/23 03:57:51;;;;;;;;;2.50;1.75;;;;;22.27;46.62;100535.47;5090889;28;9341;-72
2022/05/23 04:00:18;;;;;;;;;3.00;2.00;;;;;22.23;46.59;100529.38;5091007;28;8986;-72
2022/05/23 04:02:43;;;;;;;;;2.00;2.00;;;;;22.23;46.65;100534.69;5090704;28;8768;-72
2022/05/23 04:05:10;;;;;;;;;1.75;1.75;;;;;22.22;46.87;100529.41;5090807;28;10291;-72
2022/05/23 04:07:37;;;;;;;;;1.50;1.00;;;;;22.21;47.05;100527.66;5090857;28;8886;-72
2022/05/23 04:10:14;;;;;;;;;2.25;2.25;;;;;22.21;46.94;100530.31;5084048;28;9391;-72
2022/05/23 04:12:40;;;;;;;;;1.33;1.33;;;;;22.21;46.72;100523.22;5069920;28;9530;-71
2022/05/23 04:15:06;;;;;;;;;2.00;1.75;;;;;22.23;46.51;100529.38;5087277;28;9405;-73
2022/05/23 04:17:32;;;;;;;;;1.50;1.50;;;;;22.22;46.88;100524.09;5089954;28;8926;-72
2022/05/23 04:20:00;;;;;;;;;1.00;1.00;;;;;22.21;46.62;100520.56;5090190;28;9397;-72
2022/05/23 04:22:26;;;;;;;;;1.00;1.00;;;;;22.21;47.10;100528.53;5090312;28;8894;-73
2022/05/23 04:24:51;;;;;;;;;1.00;1.00;;;;;22.21;46.75;100536.50;5089915;28;9415;-73
2022/05/23 04:27:25;;;;;;;;;2.00;2.00;;;;;22.23;46.72;100532.03;5090409;28;8792;-72
2022/05/23 04:29:51;;;;;;;;;2.00;2.00;;;;;22.20;47.00;100521.47;5089573;28;8767;-72
2022/05/23 04:35:15;;;;;;;;;0.67;0.67;;;;;22.20;46.98;100515.28;5089880;28;8748;-72
2022/05/23 04:37:44;;;;;;;;;0.75;0.75;;;;;22.22;46.60;100518.78;5089901;28;9275;-72
2022/05/23 04:40:11;;;;;;;;;1.00;1.00;;;;;22.24;46.65;100514.25;5090270;28;9308;-73
2022/05/23 04:42:36;;;;;;;;;0.67;0.67;;;;;22.23;46.78;100510.75;5089838;28;9295;-72
2022/05/23 04:45:02;;;;;;;;;2.00;1.33;;;;;22.22;46.72;100503.69;5089194;28;9440;-72
2022/05/23 04:50:11;;;;;;;;;1.67;1.67;;;;;22.21;47.00;100491.31;5090076;28;12122;-72
2022/05/23 04:52:37;;;;;;;;;1.00;1.00;;;;;22.22;46.81;100485.06;5089542;28;9363;-72
2022/05/23 04:55:03;;;;;;;;;3.00;2.00;;;;;22.22;46.71;100478.88;5090008;28;8792;-72
2022/05/23 04:57:28;;;;;;;;;1.00;1.00;;;;;22.21;46.98;100478.00;5089751;28;8969;-72
2022/05/23 04:59:59;;;;;;;;;1.67;1.67;;;;;22.23;46.78;100473.53;5089413;28;11363;-72
2022/05/23 05:02:24;;;;;;;;;1.67;1.67;;;;;22.22;46.88;100469.13;5090058;28;8780;-72
2022/05/23 05:04:50;;;;;;;;;1.67;1.67;;;;;22.23;46.93;100467.34;5089180;28;9216;-72
2022/05/23 05:07:15;;;;;;;;;1.67;1.67;;;;;22.22;46.82;100460.28;5089671;28;8810;-72
2022/05/23 05:09:40;;;;;;;;;2.25;2.25;;;;;22.24;46.88;100461.94;5086845;28;8806;-72
2022/05/23 05:12:06;;;;;;;;;1.67;1.67;;;;;22.23;46.58;100459.34;5069003;28;8801;-72
2022/05/23 05:14:34;;;;;;;;;1.00;1.00;;;;;22.22;46.73;100465.59;5081903;28;8839;-72
2022/05/23 05:17:00;;;;;;;;;2.00;2.00;;;;;22.21;46.72;100469.16;5089224;28;9621;-72
2022/05/23 05:19:25;;;;;;;;;1.75;1.75;;;;;22.22;46.95;100465.59;5089585;28;9472;-72
2022/05/23 05:21:50;;;;;;;;;1.00;1.00;;;;;22.21;46.87;100451.41;5089365;28;8772;-73
2022/05/23 05:24:17;;;;;;;;;1.00;1.00;;;;;22.22;46.78;100453.16;5089502;28;8853;-72
2022/05/23 05:26:43;;;;;;;;;2.00;2.00;;;;;22.21;46.78;100435.47;5093675;28;8763;-72
2022/05/23 05:29:08;;;;;;;;;1.00;1.00;;;;;22.21;46.96;100434.59;5093853;28;9666;-72
2022/05/23 05:31:48;;;;;;;;;2.00;2.00;;;;;22.18;47.12;100438.22;5093918;28;8771;-72
2022/05/23 05:34:42;;;;;;;;;2.00;2.00;;;;;22.19;47.21;100439.97;5093619;28;8794;-72
2022/05/23 05:37:14;;;;;;;;;2.25;2.00;;;;;22.18;47.16;100435.56;5093155;28;9388;-72
2022/05/23 05:39:42;;;;;;;;;2.25;2.25;;;;;22.19;47.32;100428.47;5093932;28;9684;-72
2022/05/23 05:42:14;;;;;;;;;2.00;2.00;;;;;22.17;47.25;100424.06;5092954;28;9554;-72
2022/05/23 05:44:45;;;;;;;;;2.00;2.00;;;;;22.17;48.02;100426.72;5093503;28;9472;-72
2022/05/23 05:47:13;;;;;;;;;1.75;1.75;;;;;22.17;47.47;100420.53;5093034;28;9541;-72
2022/05/23 05:49:43;;;;;;;;;3.00;2.00;;;;;22.21;47.07;100418.63;5094179;28;9648;-72
2022/05/23 05:52:10;;;;;;;;;1.00;1.00;;;;;22.20;47.37;100424.84;5093434;28;9402;-72
2022/05/23 05:54:38;;;;;;;;;2.00;1.00;;;;;22.21;47.26;100418.63;5093159;28;9547;-73
2022/05/23 05:57:05;;;;;;;;;3.00;2.00;;;;;22.21;47.02;100410.66;5093202;28;9389;-72
2022/05/23 05:59:30;;;;;;;;;2.00;2.00;;;;;22.21;46.99;100410.66;5092998;28;9801;-72
2022/05/23 06:01:56;;;;;;;;;2.00;2.00;;;;;22.22;46.98;100415.06;5092592;28;9638;-72
2022/05/23 06:04:21;;;;;;;;;4.00;2.25;;;;;22.23;47.19;100419.47;5093397;28;8786;-72
2022/05/23 06:12:14;;;;;;;;;2.00;2.00;;;;;22.24;47.33;100407.88;5072606;28;9378;-71
2022/05/23 06:14:43;;;;;;;;;2.00;2.00;;;;;22.24;47.33;100402.56;5085928;28;9573;-71
2022/05/23 06:17:09;;;;;;;;;1.00;1.00;;;;;22.24;47.38;100406.09;5091503;28;8848;-72
2022/05/23 06:19:52;;;;;;;;;1.50;1.50;;;;;22.25;47.35;100406.97;5093029;28;9474;-72
2022/05/23 06:22:18;;;;;;;;;2.00;2.00;;;;;22.25;47.22;100402.53;5087760;28;8875;-72
2022/05/23 06:24:44;;;;;;;;;1.25;1.25;;;;;22.23;47.37;100401.72;5072152;28;9552;-72
2022/05/23 06:27:10;;;;;;;;;2.50;2.50;;;;;22.24;47.36;100403.44;5072444;28;8794;-73
2022/05/23 06:29:38;;;;;;;;;4.00;3.00;;;;;22.24;47.57;100402.56;5071900;28;9554;-72
2022/05/23 06:32:04;;;;;;;;;1.00;1.00;;;;;22.24;47.49;100384.81;5070576;28;8786;-73
2022/05/23 06:34:29;;;;;;;;;2.25;2.00;;;;;22.26;47.38;100388.31;5072219;28;9549;-73
2022/05/23 06:36:55;;;;;;;;;2.00;2.00;;;;;22.26;47.35;100377.69;5070756;28;8790;-72
2022/05/23 06:39:21;;;;;;;;;4.00;3.00;;;;;22.26;47.48;100369.69;5072720;28;8863;-73
2022/05/23 06:41:47;;;;;;;;;1.25;1.25;;;;;22.28;47.27;100370.50;5071925;28;10018;-73
2022/05/23 06:44:12;;;;;;;;;1.75;1.25;;;;;22.27;47.31;100371.41;5070552;28;8817;-73
2022/05/23 06:46:38;;;;;;;;;2.00;2.00;;;;;22.26;47.35;100361.72;5072000;28;8821;-72
2022/05/23 06:49:03;;;;;;;;;1.25;1.25;;;;;22.26;47.36;100366.16;5071835;28;8782;-74
2022/05/23 06:51:31;;;;;;;;;2.00;2.00;;;;;22.27;47.44;100362.59;5071713;28;8785;-72
2022/05/23 06:53:57;;;;;;;;;2.00;1.00;;;;;22.26;47.47;100343.09;5070114;28;9559;-72
2022/05/23 06:56:22;;;;;;;;;2.00;2.00;;;;;22.28;47.22;100353.66;5071298;28;8893;-72
2022/05/23 06:58:48;;;;;;;;;2.00;2.00;;;;;22.28;47.41;100351.88;5071340;28;8992;-72
2022/05/23 07:01:14;;;;;;;;;1.00;1.00;;;;;22.26;47.68;100353.75;5072240;28;8878;-72
2022/05/23 07:03:41;;;;;;;;;2.00;2.00;;;;;22.27;47.80;100352.78;5070187;28;8952;-72
2022/05/23 07:14:18;;;;;;;;;1.25;1.25;;;;;22.32;47.67;100339.34;5080778;28;9514;-72
2022/05/23 07:16:43;;;;;;;;;1.00;1.00;;;;;22.31;47.60;100335.81;5087320;28;9607;-72
2022/05/23 07:19:09;;;;;;;;;3.00;3.00;;;;;22.32;47.89;100342.88;5071433;28;9522;-72
2022/05/23 07:21:35;;;;;;;;;2.00;2.00;;;;;22.33;47.64;100341.09;5071874;28;8800;-72
2022/05/23 07:24:00;;;;;;;;;2.25;2.00;;;;;22.32;47.66;100342.88;5069665;28;8801;-72
2022/05/23 07:26:27;;;;;;;;;1.25;1.25;;;;;22.32;47.62;100340.22;5071132;28;9480;-72
2022/05/23 07:28:53;;;;;;;;;1.00;1.00;;;;;22.34;47.85;100334.88;5078635;28;8779;-73
2022/05/23 07:31:18;;;;;;;;;1.75;1.75;;;;;22.35;48.13;100340.09;5091647;28;9488;-72
2022/05/23 07:33:45;;;;;;;;;2.00;2.00;;;;;22.45;48.25;100338.00;5091354;28;9409;-72
2022/05/23 07:36:11;;;;;;;;;3.00;2.00;;;;;22.57;49.04;100330.44;5092564;28;8783;-72
2022/05/23 07:38:37;;;;;;;;;3.00;2.75;;;;;22.67;49.65;100331.00;5091966;28;9721;-71
2022/05/23 07:41:04;;;;;;;;;4.00;2.75;;;;;22.80;51.68;100337.63;5091695;28;9570;-73
2022/05/23 07:43:31;;;;;;;;;3.25;3.25;;;;;22.92;53.42;100347.84;5092250;28;11406;-72
2022/05/23 07:45:57;;;;;;;;;3.00;3.00;;;;;22.99;53.87;100337.81;5091706;28;9794;-72
2022/05/23 07:48:22;;;;;;;;;6.00;5.00;;;;;23.07;55.20;100335.75;5090773;28;10435;-72
2022/05/23 07:50:48;;;;;;;;;2.25;2.25;;;;;23.07;56.95;100327.75;5091793;28;8804;-71
2022/05/23 08:01:27;;;;;;;;;5.75;5.00;;;;;22.85;61.32;100327.69;5090198;28;9915;-72
2022/05/23 08:03:54;;;;;;;;;6.00;4.75;;;;;22.78;59.99;100327.97;5090668;28;9678;-72
2022/05/23 08:06:19;;;;;;;;;5.75;4.50;;;;;22.88;58.29;100324.91;5090490;28;9780;-73
2022/05/23 08:08:44;;;;;;;;;7.75;6.00;;;;;22.86;56.32;100329.44;5090046;28;9781;-73
2022/05/23 08:11:09;;;;;;;;;5.00;5.00;;;;;22.89;57.21;100321.34;5075746;28;8821;-74
2022/05/23 08:13:36;;;;;;;;;7.25;4.00;;;;;22.91;57.07;100314.16;5074872;28;8900;-74
2022/05/23 08:16:02;;;;;;;;;5.25;5.25;;;;;22.90;55.98;100322.22;5088915;28;8768;-73
2022/05/23 08:18:28;;;;;;;;;9.00;5.50;;;;;22.88;55.07;100314.25;5090434;28;9870;-72
2022/05/23 08:20:53;;;;;;;;;6.50;6.00;;;;;22.90;54.27;100306.22;5089927;28;11401;-73
2022/05/23 08:23:18;;;;;;;;;6.00;6.00;;;;;22.90;54.46;100300.91;5090798;28;8909;-72
2022/05/23 08:25:44;;;;;;;;;6.75;6.75;;;;;22.88;55.08;100302.75;5090584;28;8856;-72
2022/05/23 08:28:09;;;;;;;;;6.25;6.25;;;;;22.88;54.27;100297.41;5083956;28;8810;-72
2022/05/23 08:30:35;;;;;;;;;5.00;5.00;;;;;22.88;53.87;100295.63;5069672;28;8774;-72
2022/05/23 08:33:00;;;;;;;;;7.00;6.00;;;;;22.89;53.70;100296.50;5069116;28;8814;-72
2022/05/23 08:35:27;;;;;;;;;5.50;5.50;;;;;22.88;53.78;100279.66;5070833;28;8794;-71
2022/05/23 08:37:54;;;;;;;;;6.50;6.50;;;;;22.89;53.27;100277.88;5069223;28;8844;-71
2022/05/23 08:40:20;;;;;;;;;7.75;7.00;;;;;22.88;53.04;100265.47;5068903;28;9677;-71
2022/05/23 08:42:57;;;;;;;;;6.75;6.00;;;;;22.89;52.95;100265.44;5069920;28;9683;-71
2022/05/23 08:45:34;;;;;;;;;7.25;7.25;;;;;22.88;53.32;100260.16;5070326;28;9604;-71
2022/05/23 08:48:13;;;;;;;;;8.25;6.75;;;;;22.89;53.01;100265.44;5069005;28;9949;-71
2022/05/23 08:51:15;;;;;;;;;7.00;7.00;;;;;22.84;53.43;100259.41;5070175;28;9764;-71
2022/05/23 08:53:51;;;;;;;;;8.25;6.25;;;;;22.85;53.83;100261.16;5070717;28;9617;-71
2022/05/23 08:56:29;;;;;;;;;6.75;6.00;;;;;22.87;53.48;100259.28;5069581;28;9642;-71
2022/05/23 08:58:58;;;;;;;;;6.25;6.25;;;;;22.88;53.44;100252.16;5070565;28;9735;-72
2022/05/23 09:01:45;;;;;;;;;6.50;6.50;;;;;22.84;54.16;100248.75;5088524;28;9678;-71
2022/05/23 09:04:31;;;;;;;;;7.75;7.75;;;;;22.93;53.44;100247.53;5088656;28;9847;-71
2022/05/23 09:06:59;;;;;;;;;9.00;7.50;;;;;22.95;52.67;100248.34;5090003;28;9955;-72
2022/05/23 09:09:25;;;;;;;;;12.00;9.25;;;;;23.01;52.64;100238.34;5069430;28;9817;-72
2022/05/23 09:11:55;;;;;;;;;7.25;6.25;;;;;23.02;52.62;100239.22;5073709;28;9872;-72
2022/05/23 09:14:23;;;;;;;;;8.00;8.00;;;;;23.01;52.58;100234.81;5079564;28;10028;-72
2022/05/23 09:16:51;;;;;;;;;8.75;8.00;;;;;23.03;52.28;100227.63;5089188;28;9858;-72
2022/05/23 09:19:18;;;;;;;;;8.75;7.00;;;;;23.04;52.03;100226.69;5070851;28;10551;-72
2022/05/23 09:24:38;;;;;;;;;9.00;8.25;;;;;23.04;52.20;100226.69;5069177;28;9781;-72
2022/05/23 09:27:12;;;;;;;;;7.75;6.75;;;;;23.07;52.11;100226.56;5068414;28;10043;-73
2022/05/23 09:29:37;;;;;;;;;9.25;7.25;;;;;23.08;51.91;100220.31;5069172;28;10014;-72
2022/05/23 09:32:09;;;;;;;;;8.00;8.00;;;;;23.07;51.84;100218.56;5067205;28;9813;-72
2022/05/23 09:34:49;;;;;;;;;7.25;7.00;;;;;23.07;51.49;100213.25;5069569;28;8785;-72
2022/05/23 09:37:38;;;;;;;;;8.50;7.50;;;;;23.07;51.38;100215.91;5068876;28;9771;-72
2022/05/23 09:40:12;;;;;;;;;7.00;6.00;;;;;23.05;51.36;100202.69;5068682;28;9887;-72
2022/05/23 09:48:21;;;;;;;;;6.00;6.00;;;;;23.05;51.96;100183.16;5068362;28;9794;-72
2022/05/23 09:51:00;;;;;;;;;6.50;6.50;;;;;23.04;51.77;100181.44;5067409;28;9720;-72
2022/05/23 09:53:30;;;;;;;;;6.75;6.75;;;;;23.02;51.56;100170.81;5068947;28;9764;-72
2022/05/23 09:56:34;;;;;;;;;8.00;6.00;;;;;23.04;51.89;100168.97;5069125;28;9882;-71
2022/05/23 09:59:17;;;;;;;;;7.75;7.50;;;;;23.05;51.44;100169.84;5068409;28;9665;-72
2022/05/23 10:01:42;;;;;;;;;8.25;7.00;;;;;23.03;51.56;100161.91;5067114;28;9923;-72
2022/05/23 10:04:24;;;;;;;;;7.25;7.25;;;;;23.06;51.86;100166.25;5068709;28;9880;-72
2022/05/23 10:06:50;;;;;;;;;7.00;7.00;;;;;23.05;51.70;100156.53;5069077;28;8778;-72
2022/05/23 10:09:27;;;;;;;;;6.50;6.50;;;;;23.05;51.97;100152.09;5068574;28;9732;-72
2022/05/23 10:11:59;;;;;;;;;5.00;4.00;;;;;23.04;51.69;100154.81;5063206;28;9800;-72
2022/05/23 10:14:36;;;;;;;;;7.25;7.25;;;;;23.03;51.51;100145.06;5071919;28;9750;-72
2022/05/23 10:17:01;;;;;;;;;7.50;7.50;;;;;23.03;51.68;100139.75;5072186;28;9778;-71
2022/05/23 10:19:31;;;;;;;;;9.00;9.00;;;;;23.04;51.64;100134.38;5071786;28;9731;-71
2022/05/23 10:22:16;;;;;;;;;7.75;7.75;;;;;23.05;51.42;100127.25;5069908;28;8802;-71
2022/05/23 10:24:53;;;;;;;;;9.75;9.50;;;;;23.05;51.53;100130.78;5072409;28;9780;-71
2022/05/23 10:27:42;;;;;;;;;7.00;7.00;;;;;23.06;51.49;100123.63;5071672;28;9793;-71
2022/05/23 10:30:10;;;;;;;;;6.00;6.00;;;;;23.06;51.61;100120.97;5070984;28;9841;-72
2022/05/23 10:32:46;;;;;;;;;7.00;6.75;;;;;23.06;51.79;100118.31;5071357;28;9706;-71
2022/05/23 10:35:28;;;;;;;;;8.25;8.25;;;;;23.08;51.45;100117.34;5072502;28;10671;-71
2022/05/23 10:42:07;;;;;;;;;8.50;7.50;;;;;23.06;51.63;100105.00;5071679;28;9997;-71
2022/05/23 10:43:28;;;;;;;;;7.00;7.00;;;;;23.08;51.98;100093.38;5071343;28;9603;-71
2022/05/23 10:46:00;;;;;;;;;7.75;7.75;;;;;23.09;51.46;100081.75;5071825;28;9831;-71
2022/05/23 10:48:44;;;;;;;;;9.50;9.25;;;;;23.13;51.77;100087.88;5071344;28;8790;-71
2022/05/23 10:51:31;;;;;;;;;6.75;6.75;;;;;23.14;51.54;100084.25;5069929;28;9930;-72
2022/05/23 10:54:11;;;;;;;;;9.00;8.50;;;;;23.15;51.87;100085.13;5071324;28;9688;-71
2022/05/23 10:56:52;;;;;;;;;8.75;8.00;;;;;23.14;51.61;100086.91;5071253;28;9729;-71
2022/05/23 10:59:32;;;;;;;;;8.75;8.75;;;;;23.12;51.78;100086.13;5071238;28;9764;-71
2022/05/23 11:01:57;;;;;;;;;9.00;9.00;;;;;23.13;52.44;100084.31;5069652;28;9800;-71
2022/05/23 11:05:07;;;;;;;;;8.75;8.75;;;;;23.14;52.28;100076.25;5070821;28;10707;-72
2022/05/23 11:07:39;;;;;;;;;7.00;7.00;;;;;23.15;52.33;100072.66;5071488;28;8897;-70
2022/05/23 11:10:32;;;;;;;;;9.00;7.00;;;;;23.16;52.46;100071.75;5070719;28;9614;-71
2022/05/23 11:13:22;;;;;;;;;9.75;9.75;;;;;23.18;52.70;100069.88;5069949;28;9807;-71
2022/05/23 11:16:17;;;;;;;;;7.00;7.00;;;;;23.18;52.58;100056.56;5049588;28;9790;-71
2022/05/23 11:19:14;;;;;;;;;10.00;8.25;;;;;23.20;52.68;100043.19;5058847;28;9899;-70
2022/05/23 11:22:05;;;;;;;;;9.50;9.50;;;;;23.22;52.42;100039.50;5070909;28;9626;-71
2022/05/23 11:24:48;;;;;;;;;8.00;8.00;;;;;23.25;51.93;100044.69;5070924;28;9799;-71
2022/05/23 11:35:48;;;;;;;;;9.75;6.50;;;;;23.26;51.78;100040.25;5069879;28;9670;-71
2022/05/23 11:38:15;;;;;;;;;7.00;7.00;;;;;23.27;51.88;100037.53;5070931;28;10424;-71
2022/05/23 11:40:59;;;;;;;;;7.75;7.75;;;;;23.28;51.48;100039.28;5071394;28;9861;-72
2022/05/23 11:43:26;;;;;;;;;6.25;6.25;;;;;23.28;51.48;100033.94;5071773;28;10351;-71
2022/05/23 11:45:59;;;;;;;;;8.00;8.00;;;;;23.28;51.80;100023.28;5069358;28;9723;-71
2022/05/23 11:48:34;;;;;;;;;7.00;7.00;;;;;23.27;51.42;100015.34;5071351;28;9635;-71
2022/05/23 11:51:17;;;;;;;;;7.00;7.00;;;;;23.28;51.59;100003.78;5071381;28;9965;-71
2022/05/23 11:53:57;;;;;;;;;7.00;7.00;;;;;23.30;51.62;100000.09;5070657;28;9694;-71
2022/05/23 11:57:00;;;;;;;;;8.50;8.50;;;;;23.30;51.32;99988.56;5070043;28;9744;-71
2022/05/23 11:59:25;;;;;;;;;7.00;7.00;;;;;23.30;51.23;99977.91;5071206;28;9828;-72
2022/05/23 12:02:12;;;;;;;;;8.25;7.00;;;;;23.28;51.38;99969.16;5070356;28;9725;-71
2022/05/23 12:04:40;;;;;;;;;7.00;7.00;;;;;23.28;51.55;99961.16;5071222;28;8798;-72
2022/05/23 12:07:05;;;;;;;;;7.00;6.50;;;;;23.29;51.13;99954.88;5068267;28;9836;-71
2022/05/23 12:09:38;;;;;;;;;7.00;6.50;;;;;23.31;51.57;99961.00;5072138;28;10001;-71
2022/05/23 12:12:33;;;;;;;;;6.75;6.75;;;;;23.32;51.31;99960.09;5090728;28;8804;-72
2022/05/23 12:14:58;;;;;;;;;6.00;6.00;;;;;23.30;51.36;99961.94;5073838;28;9700;-71
2022/05/23 12:17:30;;;;;;;;;8.00;6.00;;;;;23.29;51.48;99955.75;5069166;28;9582;-72
2022/05/23 12:19:58;;;;;;;;;6.00;5.25;;;;;23.30;51.16;99953.94;5070148;28;8857;-72
2022/05/23 12:22:26;;;;;;;;;7.25;7.00;;;;;23.30;51.35;99945.94;5069844;28;9540;-72
2022/05/23 12:25:09;;;;;;;;;9.25;7.25;;;;;23.30;51.50;99929.97;5070590;28;9466;-72
2022/05/23 12:27:40;;;;;;;;;7.00;7.00;;;;;23.29;51.34;99937.09;5069367;28;9638;-72
2022/05/23 12:30:21;;;;;;;;;7.50;6.75;;;;;23.30;51.43;99932.63;5069881;28;9632;-72
2022/05/23 12:32:47;;;;;;;;;7.00;7.00;;;;;23.28;51.46;99931.84;5070172;28;9674;-72
2022/05/23 12:35:14;;;;;;;;;7.75;7.00;;;;;23.28;51.44;99934.53;5069352;28;9633;-72
2022/05/23 12:38:10;;;;;;;;;10.75;8.75;;;;;23.26;51.25;99934.56;5068548;28;9916;-73
2022/05/23 12:40:47;;;;;;;;;7.75;6.75;;;;;23.25;51.06;99930.16;5044637;28;9895;-73
2022/05/23 12:43:41;;;;;;;;;6.50;6.50;;;;;23.25;51.33;99942.63;5070230;28;9774;-72
2022/05/23 12:46:25;;;;;;;;;7.00;7.00;;;;;23.24;51.14;99952.44;5068513;28;9631;-71